createdAt,value
2019-02-28T00:01:04.096Z,15.83
2019-02-28T00:04:07.215Z,15.93
2019-02-28T00:07:10.320Z,13.00
2019-02-28T00:10:13.520Z,14.23
2019-02-28T00:13:21.405Z,13.27
2019-02-28T00:16:19.805Z,13.37
2019-02-28T00:19:24.007Z,14.73
2019-02-28T00:22:26.135Z,13.67
2019-02-28T00:25:29.271Z,14.90
2019-02-28T00:28:32.481Z,12.83
2019-02-28T00:31:35.678Z,13.13
2019-02-28T00:34:39.228Z,13.20
2019-02-28T00:37:42.175Z,15.63
2019-02-28T00:40:45.367Z,15.97
2019-02-28T00:43:48.572Z,14.17
2019-02-28T00:46:51.734Z,15.10
2019-02-28T00:49:55.588Z,19.60
2019-02-28T00:52:58.134Z,18.57
2019-02-28T00:56:01.339Z,14.30
2019-02-28T00:59:04.523Z,23.10
2019-02-28T01:02:07.853Z,15.00
2019-02-28T01:05:11.129Z,18.90
2019-02-28T01:08:14.316Z,14.87
2019-02-28T01:11:17.515Z,23.60
2019-02-28T01:14:20.699Z,19.37
2019-02-28T01:17:24.121Z,18.73
2019-02-28T01:20:27.096Z,18.77
2019-02-28T01:23:30.308Z,18.27
2019-02-28T01:26:33.576Z,19.20
2019-02-28T01:29:36.874Z,18.10
2019-02-28T01:32:39.975Z,21.83
2019-02-28T01:35:43.901Z,16.20
2019-02-28T01:38:47.076Z,18.80
2019-02-28T01:41:50.652Z,18.93
2019-02-28T01:44:53.884Z,19.37
2019-02-28T01:47:57.179Z,20.20
2019-02-28T01:51:01.590Z,17.17
2019-02-28T01:54:03.653Z,15.53
2019-02-28T01:57:09.002Z,19.33
2019-02-28T02:00:12.021Z,18.93
2019-02-28T02:03:15.191Z,18.50
2019-02-28T02:06:18.390Z,20.27
2019-02-28T02:09:21.581Z,17.40
2019-02-28T02:12:24.788Z,17.10
2019-02-28T02:15:27.976Z,22.00
2019-02-28T02:18:31.263Z,20.50
2019-02-28T02:21:34.885Z,19.93
2019-02-28T02:24:37.748Z,20.27
2019-02-28T02:27:40.939Z,18.17
2019-02-28T02:30:50.475Z,19.17
2019-02-28T02:33:51.132Z,19.17
2019-02-28T02:36:54.243Z,18.83
2019-02-28T02:39:53.543Z,18.97
2019-02-28T02:42:56.706Z,18.80
2019-02-28T02:46:00.445Z,21.00
2019-02-28T02:49:03.607Z,17.50
2019-02-28T02:52:06.804Z,19.40
2019-02-28T02:55:10.015Z,20.30
2019-02-28T02:58:13.246Z,19.37
2019-02-28T03:01:16.388Z,23.80
2019-02-28T03:04:23.016Z,17.90
2019-02-28T03:07:24.518Z,21.17
2019-02-28T03:10:25.875Z,20.23
2019-02-28T03:13:29.053Z,19.57
2019-02-28T03:16:33.391Z,23.83
2019-02-28T03:19:35.257Z,18.73
2019-02-28T03:22:38.504Z,24.63
2019-02-28T03:25:41.633Z,21.43
2019-02-28T03:28:44.828Z,18.87
2019-02-28T03:31:54.936Z,18.57
2019-02-28T03:34:58.311Z,20.30
2019-02-28T03:37:54.214Z,19.60
2019-02-28T03:40:57.401Z,20.77
2019-02-28T03:44:00.587Z,20.33
2019-02-28T03:47:03.795Z,20.10
2019-02-28T03:50:07.102Z,20.73
2019-02-28T03:53:10.276Z,19.90
2019-02-28T03:56:14.664Z,17.87
2019-02-28T03:59:18.853Z,18.93
2019-02-28T04:02:22.172Z,17.70
2019-02-28T04:05:28.011Z,20.90
2019-02-28T04:08:30.449Z,18.60
2019-02-28T04:11:31.381Z,18.33
2019-02-28T04:14:33.030Z,19.73
2019-02-28T04:17:35.844Z,20.60
2019-02-28T04:20:39.028Z,19.33
2019-02-28T04:23:42.227Z,20.70
2019-02-28T04:26:45.527Z,21.37
2019-02-28T04:29:48.724Z,20.47
2019-02-28T04:32:51.816Z,21.70
2019-02-28T04:35:56.906Z,19.23
2019-02-28T04:38:58.311Z,18.57
2019-02-28T04:42:04.943Z,20.63
2019-02-28T04:45:05.567Z,20.90
2019-02-28T04:48:13.692Z,19.30
2019-02-28T04:51:11.801Z,20.60
2019-02-28T04:54:14.976Z,18.53
2019-02-28T04:57:20.713Z,22.00
2019-02-28T05:00:21.285Z,20.50
2019-02-28T05:03:27.991Z,22.43
2019-02-28T05:06:27.764Z,21.07
2019-02-28T05:09:30.969Z,20.33
2019-02-28T05:12:36.293Z,20.57
2019-02-28T05:15:38.467Z,22.40
2019-02-28T05:18:40.561Z,21.00
2019-02-28T05:21:43.734Z,22.10
2019-02-28T05:24:46.836Z,22.43
2019-02-28T05:27:50.026Z,29.83
2019-02-28T05:30:53.882Z,25.63
2019-02-28T05:33:56.519Z,24.27
2019-02-28T05:36:59.710Z,25.03
2019-02-28T05:40:06.106Z,23.27
2019-02-28T05:43:06.099Z,23.80
2019-02-28T05:46:09.316Z,23.00
2019-02-28T05:49:12.499Z,25.17
2019-02-28T05:52:15.696Z,22.20
2019-02-28T05:55:24.601Z,21.87
2019-02-28T05:58:22.077Z,20.90
2019-02-28T06:01:25.268Z,23.37
2019-02-28T06:04:28.459Z,21.00
2019-02-28T06:07:31.670Z,22.33
2019-02-28T06:10:34.863Z,22.33
2019-02-28T06:13:38.046Z,25.30
2019-02-28T06:16:46.361Z,20.43
2019-02-28T06:19:44.540Z,23.80
2019-02-28T06:22:47.734Z,21.20
2019-02-28T06:25:50.945Z,20.67
2019-02-28T06:28:54.111Z,24.10
2019-02-28T06:31:57.419Z,25.50
2019-02-28T06:35:01.006Z,26.57
2019-02-28T06:38:06.697Z,21.27
2019-02-28T06:41:07.596Z,22.67
2019-02-28T06:44:10.524Z,20.97
2019-02-28T06:47:14.258Z,25.23
2019-02-28T06:50:16.999Z,24.40
2019-02-28T06:53:20.203Z,19.93
2019-02-28T06:56:23.476Z,19.70
2019-02-28T06:59:26.686Z,19.00
2019-02-28T07:02:31.409Z,19.67
2019-02-28T07:05:33.075Z,20.43
2019-02-28T07:08:36.274Z,19.70
2019-02-28T07:11:39.523Z,21.07
2019-02-28T07:14:48.060Z,17.93
2019-02-28T07:17:47.514Z,20.93
2019-02-28T07:20:49.357Z,22.73
2019-02-28T07:23:53.328Z,23.77
2019-02-28T07:26:55.634Z,33.40
2019-02-28T07:29:58.847Z,26.23
2019-02-28T07:33:02.131Z,23.50
2019-02-28T07:36:05.602Z,23.40
2019-02-28T07:39:08.572Z,26.70
2019-02-28T07:42:11.799Z,22.20
2019-02-28T07:45:15.039Z,24.87
2019-02-28T07:48:18.301Z,23.17
2019-02-28T07:51:22.317Z,26.37
2019-02-28T07:54:24.811Z,26.33
2019-02-28T07:57:28.001Z,22.07
2019-02-28T08:00:31.182Z,22.20
2019-02-28T08:03:34.388Z,20.97
2019-02-28T08:06:39.407Z,22.77
2019-02-28T08:09:41.571Z,20.00
2019-02-28T08:12:43.976Z,22.03
2019-02-28T08:15:47.163Z,21.87
2019-02-28T08:18:51.274Z,23.93
2019-02-28T08:21:53.639Z,22.43
2019-02-28T08:24:56.940Z,24.63
2019-02-28T08:28:00.887Z,25.83
2019-02-28T08:31:03.436Z,22.00
2019-02-28T08:34:06.767Z,27.60
2019-02-28T08:37:11.156Z,26.13
2019-02-28T08:40:15.648Z,21.33
2019-02-28T08:43:26.830Z,23.87
2019-02-28T08:46:21.559Z,21.30
2019-02-28T08:49:24.782Z,23.57
2019-02-28T08:52:27.987Z,25.93
2019-02-28T08:55:31.387Z,22.87
2019-02-28T08:58:37.797Z,24.30
2019-02-28T09:01:40.994Z,26.33
2019-02-28T09:04:44.690Z,29.73
2019-02-28T09:07:44.454Z,27.13
2019-02-28T09:10:47.920Z,27.77
2019-02-28T09:13:50.925Z,23.57
2019-02-28T09:16:54.116Z,27.13
2019-02-28T09:19:57.322Z,27.03
2019-02-28T09:23:02.393Z,27.90
2019-02-28T09:26:03.812Z,30.53
2019-02-28T09:29:07.020Z,33.43
2019-02-28T09:32:13.592Z,29.60
2019-02-28T09:35:14.532Z,28.27
2019-02-28T09:38:16.679Z,31.87
2019-02-28T09:41:19.893Z,35.57
2019-02-28T09:44:23.090Z,33.70
2019-02-28T09:47:27.336Z,31.40
2019-02-28T09:50:29.685Z,33.93
2019-02-28T09:53:32.948Z,39.23
2019-02-28T09:56:36.147Z,34.97
2019-02-28T09:59:39.499Z,33.70
2019-02-28T10:02:43.793Z,35.63
2019-02-28T10:05:45.935Z,33.53
2019-02-28T10:08:49.181Z,32.93
2019-02-28T10:11:52.413Z,35.00
2019-02-28T10:14:55.750Z,34.40
2019-02-28T10:18:00.782Z,34.70
2019-02-28T10:21:03.503Z,33.83
2019-02-28T10:24:06.756Z,36.10
2019-02-28T10:27:09.952Z,32.30
2019-02-28T10:30:16.673Z,31.27
2019-02-28T10:33:18.803Z,39.57
2019-02-28T10:36:22.014Z,33.87
2019-02-28T10:39:25.189Z,34.97
2019-02-28T10:42:28.375Z,37.07
2019-02-28T10:45:31.586Z,36.27
2019-02-28T10:48:35.267Z,35.87
2019-02-28T10:51:38.106Z,34.03
2019-02-28T10:54:41.359Z,32.77
2019-02-28T10:57:44.551Z,31.60
2019-02-28T11:00:47.903Z,34.97
2019-02-28T11:03:51.175Z,31.97
2019-02-28T11:06:54.335Z,34.07
2019-02-28T11:09:58.778Z,37.10
2019-02-28T11:13:00.749Z,32.20
2019-02-28T11:16:03.978Z,29.93
2019-02-28T11:19:07.167Z,31.03
2019-02-28T11:22:10.300Z,30.60
2019-02-28T11:25:13.523Z,30.47
2019-02-28T11:28:16.815Z,30.33
2019-02-28T11:31:20.151Z,35.83
2019-02-28T11:34:23.370Z,31.23
2019-02-28T11:37:26.706Z,27.03
2019-02-28T11:40:29.899Z,30.60
2019-02-28T11:43:37.512Z,27.50
2019-02-28T11:46:36.713Z,29.80
2019-02-28T11:49:39.619Z,28.50
2019-02-28T11:52:42.796Z,29.07
2019-02-28T11:55:45.978Z,30.13
2019-02-28T11:58:51.672Z,28.60
2019-02-28T12:01:52.364Z,30.27
2019-02-28T12:04:55.643Z,27.27
2019-02-28T12:07:58.863Z,26.73
2019-02-28T12:11:02.895Z,27.67
2019-02-28T12:14:06.339Z,28.43
2019-02-28T12:17:08.611Z,27.30
2019-02-28T12:20:12.636Z,27.03
2019-02-28T12:23:15.859Z,28.30
2019-02-28T12:26:21.027Z,30.57
2019-02-28T12:29:22.345Z,34.13
2019-02-28T12:32:25.692Z,28.30
2019-02-28T12:35:28.834Z,27.37
2019-02-28T12:38:32.101Z,24.53
2019-02-28T12:41:35.232Z,26.20
2019-02-28T12:44:38.432Z,27.90
2019-02-28T12:47:42.232Z,24.67
2019-02-28T12:50:44.955Z,27.83
2019-02-28T12:53:48.120Z,30.27
2019-02-28T12:56:51.312Z,25.23
2019-02-28T12:59:54.508Z,27.53
2019-02-28T13:02:57.699Z,30.23
2019-02-28T13:06:00.879Z,25.10
2019-02-28T13:09:05.317Z,25.33
2019-02-28T13:12:11.936Z,25.90
2019-02-28T13:15:13.088Z,26.93
2019-02-28T13:18:15.535Z,28.77
2019-02-28T13:21:18.712Z,25.70
2019-02-28T13:24:21.900Z,20.90
2019-02-28T13:27:25.128Z,25.33
2019-02-28T13:30:28.311Z,22.60
2019-02-28T13:33:31.481Z,24.17
2019-02-28T13:36:35.379Z,24.27
2019-02-28T13:39:38.595Z,25.47
2019-02-28T13:42:42.283Z,26.33
2019-02-28T13:45:44.970Z,22.53
2019-02-28T13:48:48.198Z,23.00
2019-02-28T13:51:51.349Z,21.07
2019-02-28T13:54:54.554Z,22.60
2019-02-28T13:57:57.743Z,20.03
2019-02-28T14:01:00.940Z,24.83
2019-02-28T14:04:04.136Z,21.70
2019-02-28T14:07:07.737Z,23.80
2019-02-28T14:10:11.608Z,29.03
2019-02-28T14:13:14.355Z,28.97
2019-02-28T14:16:17.555Z,21.20
2019-02-28T14:19:21.452Z,21.33
2019-02-28T14:22:23.923Z,23.30
2019-02-28T14:25:27.107Z,21.93
2019-02-28T14:28:32.362Z,27.27
2019-02-28T14:31:33.839Z,23.23
2019-02-28T14:34:36.868Z,24.20
2019-02-28T14:37:40.136Z,22.30
2019-02-28T14:40:43.308Z,22.23
2019-02-28T14:43:46.563Z,23.27
2019-02-28T14:46:52.804Z,24.23
2019-02-28T14:49:53.310Z,19.70
2019-02-28T14:52:56.892Z,22.13
2019-02-28T14:56:00.082Z,19.17
2019-02-28T14:59:03.196Z,21.50
2019-02-28T15:02:06.462Z,25.97
2019-02-28T15:05:10.466Z,21.20
2019-02-28T15:08:15.413Z,24.00
2019-02-28T15:11:16.690Z,23.17
2019-02-28T15:14:19.967Z,21.33
2019-02-28T15:17:23.164Z,24.57
2019-02-28T15:20:31.795Z,23.53
2019-02-28T15:23:30.844Z,22.47
2019-02-28T15:26:33.163Z,25.27
2019-02-28T15:29:35.959Z,26.13
2019-02-28T15:32:39.253Z,24.47
2019-02-28T15:35:42.360Z,23.37
2019-02-28T15:38:45.534Z,21.40
2019-02-28T15:41:48.746Z,26.83
2019-02-28T15:44:52.026Z,25.40
2019-02-28T15:47:58.992Z,24.93
2019-02-28T15:50:59.631Z,24.07
2019-02-28T15:54:02.967Z,23.97
2019-02-28T15:57:06.112Z,21.63
2019-02-28T16:00:13.631Z,21.10
2019-02-28T16:03:17.482Z,29.40
2019-02-28T16:06:20.608Z,23.53
2019-02-28T16:09:23.241Z,24.13
2019-02-28T16:12:26.348Z,18.70
2019-02-28T16:15:29.510Z,22.00
2019-02-28T16:18:32.684Z,22.33
2019-02-28T16:21:38.115Z,20.33
2019-02-28T16:24:39.756Z,22.70
2019-02-28T16:27:42.192Z,20.93
2019-02-28T16:30:45.384Z,22.23
2019-02-28T16:33:48.559Z,19.93
2019-02-28T16:36:51.790Z,24.57
2019-02-28T16:39:54.963Z,23.97
2019-02-28T16:42:58.139Z,25.93
2019-02-28T16:46:01.352Z,23.30
2019-02-28T16:49:07.396Z,24.43
2019-02-28T16:52:07.735Z,27.20
2019-02-28T16:55:11.040Z,25.47
2019-02-28T16:58:14.131Z,20.40
2019-02-28T17:01:17.552Z,25.87
2019-02-28T17:04:20.524Z,27.87
2019-02-28T17:07:23.795Z,25.20
2019-02-28T17:10:32.278Z,25.90
2019-02-28T17:13:41.423Z,21.90
2019-02-28T17:16:48.844Z,26.90
2019-02-28T17:19:52.156Z,26.00
2019-02-28T17:22:58.611Z,25.83
2019-02-28T17:25:59.526Z,32.37
2019-02-28T17:29:07.948Z,30.37
2019-02-28T17:32:12.439Z,28.87
2019-02-28T17:35:15.834Z,25.97
2019-02-28T17:38:19.233Z,27.87
2019-02-28T17:41:23.629Z,27.13
2019-02-28T17:44:41.592Z,22.80
2019-02-28T17:50:00.078Z,22.37
2019-02-28T17:53:46.000Z,23.07
2019-02-28T17:57:59.758Z,21.43
2019-02-28T18:01:12.947Z,18.07
2019-02-28T18:04:27.268Z,21.43
2019-02-28T18:08:38.545Z,17.00
2019-02-28T18:11:55.015Z,17.87
2019-02-28T18:15:08.878Z,17.63
2019-02-28T18:18:26.278Z,23.00
2019-02-28T18:21:42.827Z,18.77
2019-02-28T18:25:06.137Z,21.50
2019-02-28T18:28:22.582Z,22.47
2019-02-28T18:31:23.036Z,19.43
2019-02-28T18:34:28.248Z,17.47
2019-02-28T18:37:31.379Z,15.80
2019-02-28T18:40:37.899Z,13.77
2019-02-28T18:43:41.151Z,15.37
2019-02-28T18:46:45.361Z,14.27
2019-02-28T18:49:48.589Z,17.43
2019-02-28T18:52:51.763Z,14.67
2019-02-28T18:55:54.981Z,15.43
2019-02-28T18:58:58.262Z,13.07
2019-02-28T19:02:01.543Z,13.07
2019-02-28T19:05:06.897Z,13.70
2019-02-28T19:08:08.151Z,12.97
2019-02-28T19:11:11.319Z,15.10
2019-02-28T19:14:14.999Z,11.30
2019-02-28T19:17:18.088Z,12.60
2019-02-28T19:20:21.215Z,14.57
2019-02-28T19:23:24.415Z,14.53
2019-02-28T19:26:27.600Z,11.47
2019-02-28T19:29:30.803Z,14.67
2019-02-28T19:32:33.979Z,12.20
2019-02-28T19:35:37.195Z,14.10
2019-02-28T19:38:40.477Z,14.13
2019-02-28T19:41:43.675Z,14.67
2019-02-28T19:44:46.924Z,11.10
2019-02-28T19:47:50.076Z,9.47
2019-02-28T19:50:53.177Z,9.73
2019-02-28T19:53:56.372Z,15.17
2019-02-28T19:56:59.510Z,11.23
2019-02-28T20:00:02.662Z,13.73
2019-02-28T20:03:05.848Z,12.43
2019-02-28T20:06:09.031Z,11.37
2019-02-28T20:09:12.156Z,10.67
2019-02-28T20:12:15.458Z,10.93
2019-02-28T20:15:18.651Z,9.50
2019-02-28T20:18:21.858Z,12.60
2019-02-28T20:21:24.995Z,8.27
2019-02-28T20:24:28.147Z,11.00
2019-02-28T20:27:31.414Z,12.57
2019-02-28T20:30:34.662Z,11.60
2019-02-28T20:33:37.809Z,13.27
2019-02-28T20:36:40.936Z,13.73
2019-02-28T20:39:44.180Z,10.20
2019-02-28T20:42:47.977Z,14.30
2019-02-28T20:45:51.788Z,8.47
2019-02-28T20:48:54.988Z,11.23
2019-02-28T20:51:58.213Z,9.17
2019-02-28T20:55:01.383Z,10.37
2019-02-28T20:58:04.713Z,9.83
2019-02-28T21:01:07.841Z,11.50
2019-02-28T21:04:11.101Z,10.07
2019-02-28T21:07:14.385Z,9.33
2019-02-28T21:10:17.554Z,9.00
2019-02-28T21:13:21.034Z,13.47
2019-02-28T21:16:24.157Z,8.37
2019-02-28T21:19:28.223Z,10.70
2019-02-28T21:22:31.357Z,8.80
2019-02-28T21:25:34.448Z,12.60
2019-02-28T21:28:37.664Z,9.60
2019-02-28T21:31:40.943Z,9.47
2019-02-28T21:34:44.250Z,10.73
2019-02-28T21:37:47.475Z,13.53
2019-02-28T21:40:50.658Z,10.53
2019-02-28T21:43:53.915Z,8.27
2019-02-28T21:46:57.138Z,16.67
2019-02-28T21:50:00.471Z,12.20
2019-02-28T21:53:03.519Z,9.37
2019-02-28T21:56:06.720Z,11.87
2019-02-28T21:59:10.008Z,10.50
2019-02-28T22:02:13.226Z,11.20
2019-02-28T22:05:16.432Z,14.80
2019-02-28T22:08:19.590Z,9.97
2019-02-28T22:11:22.761Z,11.90
2019-02-28T22:14:25.973Z,10.60
2019-02-28T22:17:29.251Z,13.07
2019-02-28T22:20:32.627Z,11.57
2019-02-28T22:23:35.771Z,15.10
2019-02-28T22:26:39.047Z,11.83
2019-02-28T22:29:42.339Z,10.67
2019-02-28T22:32:49.907Z,14.07
2019-02-28T22:35:55.566Z,12.17
2019-02-28T22:38:58.676Z,9.50
2019-02-28T22:42:01.800Z,10.23
2019-02-28T22:45:05.838Z,10.63
2019-02-28T22:48:08.987Z,9.47
2019-02-28T22:51:12.225Z,11.50
2019-02-28T22:54:15.901Z,12.17
2019-02-28T22:57:19.079Z,10.57
2019-02-28T23:00:27.875Z,10.37
2019-02-28T23:03:31.214Z,9.03
2019-02-28T23:06:34.401Z,9.33
2019-02-28T23:09:37.494Z,10.03
2019-02-28T23:12:40.796Z,10.50
2019-02-28T23:15:43.999Z,10.50
2019-02-28T23:18:47.179Z,9.27
2019-02-28T23:21:50.479Z,8.90
2019-02-28T23:24:53.671Z,15.77
2019-02-28T23:28:08.224Z,14.07
2019-02-28T23:31:24.195Z,12.23
2019-02-28T23:34:32.919Z,12.43
2019-02-28T23:37:36.043Z,10.63
2019-02-28T23:40:39.290Z,9.50
2019-02-28T23:43:42.451Z,11.00
2019-02-28T23:46:45.651Z,9.63
2019-02-28T23:49:48.824Z,7.93
2019-02-28T23:52:52.015Z,7.33
2019-02-28T23:55:55.219Z,9.17
2019-02-28T23:58:58.411Z,9.43
